sensor_id;sensor_type;location;lat;lon;timestamp;P1;durP1;ratioP1;P2;durP2;ratioP2
12880;SDS011;6508;53.786;9.996;2022-09-13T00:02:19;5.78;;;5.38;;
12880;SDS011;6508;53.786;9.996;2022-09-13T00:04:46;6.40;;;5.88;;
12880;SDS011;6508;53.786;9.996;2022-09-13T00:07:14;5.93;;;5.50;;
12880;SDS011;6508;53.786;9.996;2022-09-13T00:09:43;6.07;;;5.68;;
12880;SDS011;6508;53.786;9.996;2022-09-13T00:12:11;6.32;;;5.90;;
12880;SDS011;6508;53.786;9.996;2022-09-13T00:14:39;5.95;;;5.65;;
12880;SDS011;6508;53.786;9.996;2022-09-13T00:17:06;6.38;;;5.80;;
12880;SDS011;6508;53.786;9.996;2022-09-13T00:19:34;6.50;;;6.20;;
12880;SDS011;6508;53.786;9.996;2022-09-13T00:22:02;7.40;;;6.95;;
12880;SDS011;6508;53.786;9.996;2022-09-13T00:24:32;6.85;;;6.45;;
12880;SDS011;6508;53.786;9.996;2022-09-13T00:27:02;6.78;;;6.28;;
12880;SDS011;6508;53.786;9.996;2022-09-13T00:29:31;8.85;;;8.02;;
12880;SDS011;6508;53.786;9.996;2022-09-13T00:31:58;7.50;;;6.85;;
12880;SDS011;6508;53.786;9.996;2022-09-13T00:34:26;8.23;;;7.63;;
12880;SDS011;6508;53.786;9.996;2022-09-13T00:36:55;7.68;;;7.18;;
12880;SDS011;6508;53.786;9.996;2022-09-13T00:39:22;7.15;;;6.65;;
12880;SDS011;6508;53.786;9.996;2022-09-13T00:41:50;7.60;;;6.85;;
12880;SDS011;6508;53.786;9.996;2022-09-13T00:47:16;7.47;;;6.88;;
12880;SDS011;6508;53.786;9.996;2022-09-13T00:49:47;6.90;;;6.40;;
12880;SDS011;6508;53.786;9.996;2022-09-13T00:52:17;7.70;;;7.07;;
12880;SDS011;6508;53.786;9.996;2022-09-13T00:54:48;8.48;;;6.63;;
12880;SDS011;6508;53.786;9.996;2022-09-13T00:57:19;7.32;;;6.72;;
12880;SDS011;6508;53.786;9.996;2022-09-13T00:59:51;8.00;;;7.40;;
12880;SDS011;6508;53.786;9.996;2022-09-13T01:02:21;6.85;;;6.30;;
12880;SDS011;6508;53.786;9.996;2022-09-13T01:04:49;7.20;;;6.70;;
12880;SDS011;6508;53.786;9.996;2022-09-13T01:07:17;7.05;;;6.55;;
12880;SDS011;6508;53.786;9.996;2022-09-13T01:09:45;7.68;;;6.93;;
12880;SDS011;6508;53.786;9.996;2022-09-13T01:12:16;7.38;;;6.78;;
12880;SDS011;6508;53.786;9.996;2022-09-13T01:14:51;7.15;;;6.65;;
12880;SDS011;6508;53.786;9.996;2022-09-13T01:17:19;7.13;;;6.43;;
12880;SDS011;6508;53.786;9.996;2022-09-13T01:19:47;6.97;;;6.47;;
12880;SDS011;6508;53.786;9.996;2022-09-13T01:22:21;6.82;;;6.32;;
12880;SDS011;6508;53.786;9.996;2022-09-13T01:28:03;7.20;;;6.53;;
12880;SDS011;6508;53.786;9.996;2022-09-13T01:30:40;7.93;;;7.22;;
12880;SDS011;6508;53.786;9.996;2022-09-13T01:33:20;7.55;;;6.85;;
12880;SDS011;6508;53.786;9.996;2022-09-13T01:35:55;6.95;;;6.35;;
12880;SDS011;6508;53.786;9.996;2022-09-13T01:38:49;7.00;;;6.30;;
12880;SDS011;6508;53.786;9.996;2022-09-13T01:41:28;6.95;;;5.78;;
12880;SDS011;6508;53.786;9.996;2022-09-13T01:44:10;6.82;;;6.22;;
12880;SDS011;6508;53.786;9.996;2022-09-13T01:46:45;7.32;;;6.25;;
12880;SDS011;6508;53.786;9.996;2022-09-13T01:49:17;7.18;;;6.47;;
12880;SDS011;6508;53.786;9.996;2022-09-13T01:51:48;6.38;;;5.93;;
12880;SDS011;6508;53.786;9.996;2022-09-13T01:54:17;7.50;;;6.15;;
12880;SDS011;6508;53.786;9.996;2022-09-13T01:56:50;6.25;;;5.75;;
12880;SDS011;6508;53.786;9.996;2022-09-13T01:59:22;6.85;;;6.15;;
12880;SDS011;6508;53.786;9.996;2022-09-13T02:01:53;7.00;;;6.40;;
12880;SDS011;6508;53.786;9.996;2022-09-13T02:04:24;7.05;;;6.43;;
12880;SDS011;6508;53.786;9.996;2022-09-13T02:06:57;7.03;;;6.32;;
12880;SDS011;6508;53.786;9.996;2022-09-13T02:09:27;7.22;;;6.63;;
12880;SDS011;6508;53.786;9.996;2022-09-13T02:11:59;7.03;;;6.22;;
12880;SDS011;6508;53.786;9.996;2022-09-13T02:14:31;7.15;;;6.65;;
12880;SDS011;6508;53.786;9.996;2022-09-13T02:17:05;6.85;;;6.25;;
12880;SDS011;6508;53.786;9.996;2022-09-13T02:19:34;7.88;;;7.07;;
12880;SDS011;6508;53.786;9.996;2022-09-13T02:22:03;7.70;;;7.00;;
12880;SDS011;6508;53.786;9.996;2022-09-13T02:24:33;7.28;;;6.50;;
12880;SDS011;6508;53.786;9.996;2022-09-13T02:27:04;7.55;;;6.95;;
12880;SDS011;6508;53.786;9.996;2022-09-13T02:29:34;7.13;;;6.53;;
12880;SDS011;6508;53.786;9.996;2022-09-13T02:32:07;6.60;;;6.10;;
12880;SDS011;6508;53.786;9.996;2022-09-13T02:34:38;6.50;;;6.00;;
12880;SDS011;6508;53.786;9.996;2022-09-13T02:37:07;6.75;;;6.05;;
12880;SDS011;6508;53.786;9.996;2022-09-13T02:39:36;6.78;;;6.25;;
12880;SDS011;6508;53.786;9.996;2022-09-13T02:42:09;7.30;;;6.70;;
12880;SDS011;6508;53.786;9.996;2022-09-13T02:44:41;7.28;;;6.60;;
12880;SDS011;6508;53.786;9.996;2022-09-13T02:47:18;6.80;;;6.20;;
12880;SDS011;6508;53.786;9.996;2022-09-13T02:49:53;7.03;;;6.43;;
12880;SDS011;6508;53.786;9.996;2022-09-13T02:52:26;7.65;;;6.95;;
12880;SDS011;6508;53.786;9.996;2022-09-13T02:55:02;7.47;;;6.82;;
12880;SDS011;6508;53.786;9.996;2022-09-13T02:57:35;7.35;;;6.78;;
12880;SDS011;6508;53.786;9.996;2022-09-13T03:00:05;8.07;;;7.45;;
12880;SDS011;6508;53.786;9.996;2022-09-13T03:02:35;8.18;;;7.38;;
12880;SDS011;6508;53.786;9.996;2022-09-13T03:05:04;9.02;;;8.07;;
12880;SDS011;6508;53.786;9.996;2022-09-13T03:07:32;8.45;;;7.70;;
12880;SDS011;6508;53.786;9.996;2022-09-13T03:10:02;7.85;;;7.15;;
12880;SDS011;6508;53.786;9.996;2022-09-13T03:12:40;8.93;;;8.07;;
12880;SDS011;6508;53.786;9.996;2022-09-13T03:15:18;10.57;;;8.25;;
12880;SDS011;6508;53.786;9.996;2022-09-13T03:17:53;9.25;;;8.45;;
12880;SDS011;6508;53.786;9.996;2022-09-13T03:20:29;10.75;;;8.35;;
12880;SDS011;6508;53.786;9.996;2022-09-13T03:26:02;9.95;;;8.95;;
12880;SDS011;6508;53.786;9.996;2022-09-13T03:28:40;9.38;;;8.48;;
12880;SDS011;6508;53.786;9.996;2022-09-13T03:31:15;9.13;;;8.30;;
12880;SDS011;6508;53.786;9.996;2022-09-13T03:33:49;9.50;;;8.60;;
12880;SDS011;6508;53.786;9.996;2022-09-13T03:36:23;10.60;;;9.38;;
12880;SDS011;6508;53.786;9.996;2022-09-13T03:38:54;10.63;;;8.93;;
12880;SDS011;6508;53.786;9.996;2022-09-13T03:41:24;10.43;;;9.40;;
12880;SDS011;6508;53.786;9.996;2022-09-13T03:43:56;10.13;;;9.13;;
12880;SDS011;6508;53.786;9.996;2022-09-13T03:46:29;10.23;;;9.23;;
12880;SDS011;6508;53.786;9.996;2022-09-13T03:49:01;10.55;;;9.45;;
12880;SDS011;6508;53.786;9.996;2022-09-13T03:51:30;11.05;;;9.90;;
12880;SDS011;6508;53.786;9.996;2022-09-13T03:54:00;11.25;;;9.45;;
12880;SDS011;6508;53.786;9.996;2022-09-13T03:56:29;11.95;;;10.68;;
12880;SDS011;6508;53.786;9.996;2022-09-13T03:58:57;11.70;;;10.50;;
12880;SDS011;6508;53.786;9.996;2022-09-13T04:01:25;13.90;;;11.15;;
12880;SDS011;6508;53.786;9.996;2022-09-13T04:03:53;12.23;;;10.95;;
12880;SDS011;6508;53.786;9.996;2022-09-13T04:06:23;15.95;;;12.57;;
12880;SDS011;6508;53.786;9.996;2022-09-13T04:08:51;19.35;;;14.23;;
12880;SDS011;6508;53.786;9.996;2022-09-13T04:11:19;17.10;;;12.90;;
12880;SDS011;6508;53.786;9.996;2022-09-13T04:13:47;19.30;;;14.45;;
12880;SDS011;6508;53.786;9.996;2022-09-13T04:16:15;16.85;;;14.27;;
12880;SDS011;6508;53.786;9.996;2022-09-13T04:18:43;19.15;;;15.40;;
12880;SDS011;6508;53.786;9.996;2022-09-13T04:21:11;20.33;;;15.43;;
12880;SDS011;6508;53.786;9.996;2022-09-13T04:23:41;21.15;;;14.82;;
12880;SDS011;6508;53.786;9.996;2022-09-13T04:26:09;19.42;;;14.57;;
12880;SDS011;6508;53.786;9.996;2022-09-13T04:28:36;24.60;;;15.02;;
12880;SDS011;6508;53.786;9.996;2022-09-13T04:31:04;24.88;;;15.63;;
12880;SDS011;6508;53.786;9.996;2022-09-13T04:33:32;24.77;;;15.90;;
12880;SDS011;6508;53.786;9.996;2022-09-13T04:35:59;19.60;;;14.95;;
12880;SDS011;6508;53.786;9.996;2022-09-13T04:38:27;26.05;;;16.77;;
12880;SDS011;6508;53.786;9.996;2022-09-13T04:40:58;25.75;;;15.88;;
12880;SDS011;6508;53.786;9.996;2022-09-13T04:43:26;28.55;;;21.20;;
12880;SDS011;6508;53.786;9.996;2022-09-13T04:45:53;28.95;;;21.42;;
12880;SDS011;6508;53.786;9.996;2022-09-13T04:48:21;28.17;;;19.85;;
12880;SDS011;6508;53.786;9.996;2022-09-13T04:50:48;33.03;;;18.45;;
12880;SDS011;6508;53.786;9.996;2022-09-13T04:53:16;31.50;;;18.65;;
12880;SDS011;6508;53.786;9.996;2022-09-13T04:55:43;33.33;;;19.55;;
12880;SDS011;6508;53.786;9.996;2022-09-13T04:58:12;32.22;;;20.10;;
12880;SDS011;6508;53.786;9.996;2022-09-13T05:00:41;30.05;;;19.52;;
12880;SDS011;6508;53.786;9.996;2022-09-13T05:03:08;34.15;;;20.90;;
12880;SDS011;6508;53.786;9.996;2022-09-13T05:05:36;29.38;;;19.48;;
12880;SDS011;6508;53.786;9.996;2022-09-13T05:08:04;31.40;;;20.30;;
12880;SDS011;6508;53.786;9.996;2022-09-13T05:10:31;32.65;;;19.77;;
12880;SDS011;6508;53.786;9.996;2022-09-13T05:12:59;31.70;;;19.73;;
12880;SDS011;6508;53.786;9.996;2022-09-13T05:15:28;33.00;;;19.85;;
12880;SDS011;6508;53.786;9.996;2022-09-13T05:17:55;33.85;;;19.55;;
12880;SDS011;6508;53.786;9.996;2022-09-13T05:20:23;34.97;;;20.52;;
12880;SDS011;6508;53.786;9.996;2022-09-13T05:22:51;32.05;;;20.13;;
12880;SDS011;6508;53.786;9.996;2022-09-13T05:25:18;30.88;;;19.33;;
12880;SDS011;6508;53.786;9.996;2022-09-13T05:27:51;32.20;;;19.95;;
12880;SDS011;6508;53.786;9.996;2022-09-13T05:30:19;32.88;;;20.33;;
12880;SDS011;6508;53.786;9.996;2022-09-13T05:32:48;34.53;;;21.50;;
12880;SDS011;6508;53.786;9.996;2022-09-13T05:35:16;30.83;;;19.55;;
12880;SDS011;6508;53.786;9.996;2022-09-13T05:37:43;31.23;;;19.45;;
12880;SDS011;6508;53.786;9.996;2022-09-13T05:40:11;32.70;;;19.65;;
12880;SDS011;6508;53.786;9.996;2022-09-13T05:42:39;34.30;;;19.55;;
12880;SDS011;6508;53.786;9.996;2022-09-13T05:45:07;33.95;;;20.45;;
12880;SDS011;6508;53.786;9.996;2022-09-13T05:47:35;30.95;;;20.33;;
12880;SDS011;6508;53.786;9.996;2022-09-13T05:50:05;35.17;;;20.30;;
12880;SDS011;6508;53.786;9.996;2022-09-13T05:52:39;33.72;;;20.17;;
12880;SDS011;6508;53.786;9.996;2022-09-13T05:55:07;32.80;;;20.27;;
12880;SDS011;6508;53.786;9.996;2022-09-13T05:57:35;32.50;;;20.67;;
12880;SDS011;6508;53.786;9.996;2022-09-13T06:00:03;36.00;;;20.23;;
12880;SDS011;6508;53.786;9.996;2022-09-13T06:02:37;33.90;;;21.20;;
12880;SDS011;6508;53.786;9.996;2022-09-13T06:05:07;37.15;;;21.25;;
12880;SDS011;6508;53.786;9.996;2022-09-13T06:07:37;36.95;;;21.52;;
12880;SDS011;6508;53.786;9.996;2022-09-13T06:10:06;35.47;;;21.13;;
12880;SDS011;6508;53.786;9.996;2022-09-13T06:12:34;35.25;;;21.48;;
12880;SDS011;6508;53.786;9.996;2022-09-13T06:15:02;37.53;;;21.65;;
12880;SDS011;6508;53.786;9.996;2022-09-13T06:17:30;40.00;;;22.05;;
12880;SDS011;6508;53.786;9.996;2022-09-13T06:19:58;32.67;;;20.90;;
12880;SDS011;6508;53.786;9.996;2022-09-13T06:22:27;36.83;;;21.35;;
12880;SDS011;6508;53.786;9.996;2022-09-13T06:24:58;34.72;;;20.75;;
12880;SDS011;6508;53.786;9.996;2022-09-13T06:27:27;30.98;;;20.20;;
12880;SDS011;6508;53.786;9.996;2022-09-13T06:29:55;33.15;;;18.90;;
12880;SDS011;6508;53.786;9.996;2022-09-13T06:32:23;36.33;;;20.17;;
12880;SDS011;6508;53.786;9.996;2022-09-13T06:34:51;32.67;;;19.98;;
12880;SDS011;6508;53.786;9.996;2022-09-13T06:37:19;31.45;;;19.45;;
12880;SDS011;6508;53.786;9.996;2022-09-13T06:39:48;35.00;;;19.88;;
12880;SDS011;6508;53.786;9.996;2022-09-13T06:42:16;34.25;;;20.00;;
12880;SDS011;6508;53.786;9.996;2022-09-13T06:44:44;32.22;;;20.23;;
12880;SDS011;6508;53.786;9.996;2022-09-13T06:47:13;30.50;;;20.00;;
12880;SDS011;6508;53.786;9.996;2022-09-13T06:49:41;35.67;;;19.23;;
12880;SDS011;6508;53.786;9.996;2022-09-13T06:52:09;38.42;;;21.42;;
12880;SDS011;6508;53.786;9.996;2022-09-13T06:54:37;31.50;;;20.17;;
12880;SDS011;6508;53.786;9.996;2022-09-13T06:57:06;28.92;;;19.17;;
12880;SDS011;6508;53.786;9.996;2022-09-13T06:59:35;25.67;;;16.23;;
12880;SDS011;6508;53.786;9.996;2022-09-13T07:02:03;27.05;;;14.75;;
12880;SDS011;6508;53.786;9.996;2022-09-13T07:04:30;19.58;;;13.65;;
12880;SDS011;6508;53.786;9.996;2022-09-13T07:06:58;20.15;;;11.77;;
12880;SDS011;6508;53.786;9.996;2022-09-13T07:09:26;16.08;;;11.38;;
12880;SDS011;6508;53.786;9.996;2022-09-13T07:11:54;15.05;;;10.80;;
12880;SDS011;6508;53.786;9.996;2022-09-13T07:14:24;15.70;;;9.73;;
12880;SDS011;6508;53.786;9.996;2022-09-13T07:16:53;10.90;;;8.23;;
12880;SDS011;6508;53.786;9.996;2022-09-13T07:19:22;15.90;;;7.80;;
12880;SDS011;6508;53.786;9.996;2022-09-13T07:21:52;13.77;;;7.55;;
12880;SDS011;6508;53.786;9.996;2022-09-13T07:24:20;7.47;;;6.03;;
12880;SDS011;6508;53.786;9.996;2022-09-13T07:26:48;9.18;;;5.95;;
12880;SDS011;6508;53.786;9.996;2022-09-13T07:29:17;4.43;;;3.30;;
12880;SDS011;6508;53.786;9.996;2022-09-13T07:31:49;3.90;;;2.88;;
12880;SDS011;6508;53.786;9.996;2022-09-13T07:34:19;6.82;;;2.72;;
12880;SDS011;6508;53.786;9.996;2022-09-13T07:36:48;9.65;;;2.45;;
12880;SDS011;6508;53.786;9.996;2022-09-13T07:39:18;3.55;;;2.30;;
12880;SDS011;6508;53.786;9.996;2022-09-13T07:41:48;5.80;;;2.90;;
12880;SDS011;6508;53.786;9.996;2022-09-13T07:44:16;6.22;;;2.17;;
12880;SDS011;6508;53.786;9.996;2022-09-13T07:46:44;2.25;;;2.10;;
12880;SDS011;6508;53.786;9.996;2022-09-13T07:49:13;3.63;;;2.00;;
12880;SDS011;6508;53.786;9.996;2022-09-13T07:51:43;5.65;;;2.10;;
12880;SDS011;6508;53.786;9.996;2022-09-13T07:54:12;2.33;;;2.08;;
12880;SDS011;6508;53.786;9.996;2022-09-13T07:56:41;5.68;;;2.40;;
12880;SDS011;6508;53.786;9.996;2022-09-13T07:59:10;2.75;;;2.00;;
12880;SDS011;6508;53.786;9.996;2022-09-13T08:01:39;4.32;;;2.20;;
12880;SDS011;6508;53.786;9.996;2022-09-13T08:04:08;5.38;;;2.15;;
12880;SDS011;6508;53.786;9.996;2022-09-13T08:06:38;2.70;;;2.22;;
12880;SDS011;6508;53.786;9.996;2022-09-13T08:09:08;6.28;;;2.10;;
12880;SDS011;6508;53.786;9.996;2022-09-13T08:11:37;5.25;;;2.40;;
12880;SDS011;6508;53.786;9.996;2022-09-13T08:14:07;5.18;;;2.25;;
12880;SDS011;6508;53.786;9.996;2022-09-13T08:16:36;5.63;;;2.90;;
12880;SDS011;6508;53.786;9.996;2022-09-13T08:19:04;2.85;;;2.50;;
12880;SDS011;6508;53.786;9.996;2022-09-13T08:21:34;4.03;;;2.80;;
12880;SDS011;6508;53.786;9.996;2022-09-13T08:24:05;6.70;;;3.00;;
12880;SDS011;6508;53.786;9.996;2022-09-13T08:26:34;3.63;;;2.30;;
12880;SDS011;6508;53.786;9.996;2022-09-13T08:29:03;4.53;;;3.20;;
12880;SDS011;6508;53.786;9.996;2022-09-13T08:31:32;4.05;;;2.58;;
12880;SDS011;6508;53.786;9.996;2022-09-13T08:34:01;2.78;;;2.28;;
12880;SDS011;6508;53.786;9.996;2022-09-13T08:36:29;5.20;;;2.30;;
12880;SDS011;6508;53.786;9.996;2022-09-13T08:38:57;4.03;;;2.22;;
12880;SDS011;6508;53.786;9.996;2022-09-13T08:41:50;2.85;;;2.60;;
12880;SDS011;6508;53.786;9.996;2022-09-13T08:44:26;3.28;;;3.00;;
12880;SDS011;6508;53.786;9.996;2022-09-13T08:46:56;4.18;;;2.80;;
12880;SDS011;6508;53.786;9.996;2022-09-13T08:49:29;4.13;;;2.90;;
12880;SDS011;6508;53.786;9.996;2022-09-13T08:52:00;3.40;;;3.05;;
12880;SDS011;6508;53.786;9.996;2022-09-13T08:54:30;3.83;;;3.13;;
12880;SDS011;6508;53.786;9.996;2022-09-13T08:57:00;3.53;;;3.15;;
12880;SDS011;6508;53.786;9.996;2022-09-13T08:59:34;3.35;;;3.10;;
12880;SDS011;6508;53.786;9.996;2022-09-13T09:02:15;3.65;;;3.35;;
12880;SDS011;6508;53.786;9.996;2022-09-13T09:04:51;4.07;;;3.50;;
12880;SDS011;6508;53.786;9.996;2022-09-13T09:07:23;3.97;;;3.38;;
12880;SDS011;6508;53.786;9.996;2022-09-13T09:09:54;4.10;;;3.70;;
12880;SDS011;6508;53.786;9.996;2022-09-13T09:12:26;3.88;;;3.50;;
12880;SDS011;6508;53.786;9.996;2022-09-13T09:15:01;4.28;;;3.40;;
12880;SDS011;6508;53.786;9.996;2022-09-13T09:17:33;3.85;;;3.60;;
12880;SDS011;6508;53.786;9.996;2022-09-13T09:20:08;3.95;;;3.80;;
12880;SDS011;6508;53.786;9.996;2022-09-13T09:22:45;4.40;;;4.03;;
12880;SDS011;6508;53.786;9.996;2022-09-13T09:25:14;4.15;;;2.67;;
12880;SDS011;6508;53.786;9.996;2022-09-13T09:27:44;3.60;;;2.72;;
12880;SDS011;6508;53.786;9.996;2022-09-13T09:30:12;3.80;;;3.20;;
12880;SDS011;6508;53.786;9.996;2022-09-13T09:32:51;4.63;;;2.88;;
12880;SDS011;6508;53.786;9.996;2022-09-13T09:35:31;3.15;;;2.95;;
12880;SDS011;6508;53.786;9.996;2022-09-13T09:41:10;4.03;;;3.00;;
12880;SDS011;6508;53.786;9.996;2022-09-13T09:43:43;4.25;;;2.78;;
12880;SDS011;6508;53.786;9.996;2022-09-13T09:46:13;3.10;;;2.90;;
12880;SDS011;6508;53.786;9.996;2022-09-13T09:48:44;3.13;;;2.80;;
12880;SDS011;6508;53.786;9.996;2022-09-13T09:51:15;5.32;;;3.08;;
12880;SDS011;6508;53.786;9.996;2022-09-13T09:53:46;3.63;;;3.20;;
12880;SDS011;6508;53.786;9.996;2022-09-13T09:56:20;4.57;;;3.30;;
12880;SDS011;6508;53.786;9.996;2022-09-13T09:58:51;4.45;;;3.20;;
12880;SDS011;6508;53.786;9.996;2022-09-13T10:01:20;3.90;;;3.60;;
12880;SDS011;6508;53.786;9.996;2022-09-13T10:03:52;4.03;;;3.63;;
12880;SDS011;6508;53.786;9.996;2022-09-13T10:06:29;5.35;;;3.85;;
12880;SDS011;6508;53.786;9.996;2022-09-13T10:08:58;3.88;;;3.20;;
12880;SDS011;6508;53.786;9.996;2022-09-13T10:11:37;4.95;;;3.38;;
12880;SDS011;6508;53.786;9.996;2022-09-13T10:14:28;3.58;;;3.30;;
12880;SDS011;6508;53.786;9.996;2022-09-13T10:17:02;3.95;;;3.55;;
12880;SDS011;6508;53.786;9.996;2022-09-13T10:19:31;5.30;;;3.53;;
12880;SDS011;6508;53.786;9.996;2022-09-13T10:22:00;4.03;;;3.63;;
12880;SDS011;6508;53.786;9.996;2022-09-13T10:24:29;4.35;;;3.50;;
12880;SDS011;6508;53.786;9.996;2022-09-13T10:26:57;3.63;;;3.33;;
12880;SDS011;6508;53.786;9.996;2022-09-13T10:29:26;3.78;;;3.22;;
12880;SDS011;6508;53.786;9.996;2022-09-13T10:31:56;5.93;;;3.35;;
12880;SDS011;6508;53.786;9.996;2022-09-13T10:34:27;6.07;;;3.47;;
12880;SDS011;6508;53.786;9.996;2022-09-13T10:36:56;4.25;;;3.20;;
12880;SDS011;6508;53.786;9.996;2022-09-13T10:39:26;4.30;;;3.25;;
12880;SDS011;6508;53.786;9.996;2022-09-13T10:41:56;7.00;;;3.80;;
12880;SDS011;6508;53.786;9.996;2022-09-13T10:44:31;4.20;;;3.00;;
12880;SDS011;6508;53.786;9.996;2022-09-13T10:47:01;4.30;;;3.95;;
12880;SDS011;6508;53.786;9.996;2022-09-13T10:49:37;8.32;;;3.78;;
12880;SDS011;6508;53.786;9.996;2022-09-13T10:52:23;5.15;;;3.17;;
12880;SDS011;6508;53.786;9.996;2022-09-13T10:55:15;4.68;;;3.17;;
12880;SDS011;6508;53.786;9.996;2022-09-13T10:57:51;4.68;;;3.05;;
12880;SDS011;6508;53.786;9.996;2022-09-13T11:00:21;3.90;;;3.45;;
12880;SDS011;6508;53.786;9.996;2022-09-13T11:02:59;3.90;;;3.60;;
12880;SDS011;6508;53.786;9.996;2022-09-13T11:05:38;5.70;;;3.45;;
12880;SDS011;6508;53.786;9.996;2022-09-13T11:08:12;4.13;;;3.60;;
12880;SDS011;6508;53.786;9.996;2022-09-13T11:10:54;3.88;;;3.30;;
12880;SDS011;6508;53.786;9.996;2022-09-13T11:13:30;4.18;;;3.95;;
12880;SDS011;6508;53.786;9.996;2022-09-13T11:16:16;4.05;;;3.65;;
12880;SDS011;6508;53.786;9.996;2022-09-13T11:19:02;3.78;;;3.47;;
12880;SDS011;6508;53.786;9.996;2022-09-13T11:21:37;4.85;;;3.60;;
12880;SDS011;6508;53.786;9.996;2022-09-13T11:24:18;3.40;;;3.10;;
12880;SDS011;6508;53.786;9.996;2022-09-13T11:26:57;3.72;;;2.88;;
12880;SDS011;6508;53.786;9.996;2022-09-13T11:29:33;4.30;;;3.35;;
12880;SDS011;6508;53.786;9.996;2022-09-13T11:32:12;5.90;;;3.17;;
12880;SDS011;6508;53.786;9.996;2022-09-13T11:34:48;5.03;;;3.40;;
12880;SDS011;6508;53.786;9.996;2022-09-13T11:37:27;5.65;;;3.95;;
12880;SDS011;6508;53.786;9.996;2022-09-13T11:40:10;3.50;;;3.20;;
12880;SDS011;6508;53.786;9.996;2022-09-13T11:42:48;3.30;;;3.00;;
12880;SDS011;6508;53.786;9.996;2022-09-13T11:45:21;4.60;;;3.10;;
12880;SDS011;6508;53.786;9.996;2022-09-13T11:48:05;3.28;;;3.03;;
12880;SDS011;6508;53.786;9.996;2022-09-13T11:50:54;5.18;;;3.10;;
12880;SDS011;6508;53.786;9.996;2022-09-13T11:56:16;4.93;;;3.28;;
12880;SDS011;6508;53.786;9.996;2022-09-13T11:58:49;3.83;;;3.50;;
12880;SDS011;6508;53.786;9.996;2022-09-13T12:01:19;3.75;;;3.15;;
12880;SDS011;6508;53.786;9.996;2022-09-13T12:03:53;3.35;;;3.22;;
12880;SDS011;6508;53.786;9.996;2022-09-13T12:06:24;3.63;;;3.33;;
12880;SDS011;6508;53.786;9.996;2022-09-13T12:08:55;4.18;;;3.40;;
12880;SDS011;6508;53.786;9.996;2022-09-13T12:11:26;5.95;;;4.00;;
12880;SDS011;6508;53.786;9.996;2022-09-13T12:13:56;3.38;;;3.17;;
12880;SDS011;6508;53.786;9.996;2022-09-13T12:16:27;3.58;;;3.20;;
12880;SDS011;6508;53.786;9.996;2022-09-13T12:19:04;4.55;;;3.70;;
12880;SDS011;6508;53.786;9.996;2022-09-13T12:21:35;5.40;;;3.60;;
12880;SDS011;6508;53.786;9.996;2022-09-13T12:24:05;3.92;;;3.60;;
12880;SDS011;6508;53.786;9.996;2022-09-13T12:26:44;3.58;;;3.30;;
12880;SDS011;6508;53.786;9.996;2022-09-13T12:29:16;3.50;;;3.20;;
12880;SDS011;6508;53.786;9.996;2022-09-13T12:31:45;3.08;;;2.97;;
12880;SDS011;6508;53.786;9.996;2022-09-13T12:34:16;4.30;;;3.70;;
12880;SDS011;6508;53.786;9.996;2022-09-13T12:36:55;3.95;;;3.50;;
12880;SDS011;6508;53.786;9.996;2022-09-13T12:39:37;3.13;;;3.00;;
12880;SDS011;6508;53.786;9.996;2022-09-13T12:42:18;3.15;;;2.95;;
12880;SDS011;6508;53.786;9.996;2022-09-13T12:45:01;3.67;;;3.40;;
12880;SDS011;6508;53.786;9.996;2022-09-13T12:51:01;4.43;;;3.20;;
12880;SDS011;6508;53.786;9.996;2022-09-13T12:53:42;3.13;;;3.00;;
12880;SDS011;6508;53.786;9.996;2022-09-13T12:56:30;3.88;;;3.38;;
12880;SDS011;6508;53.786;9.996;2022-09-13T12:59:24;4.40;;;2.83;;
12880;SDS011;6508;53.786;9.996;2022-09-13T13:02:18;3.40;;;3.00;;
12880;SDS011;6508;53.786;9.996;2022-09-13T13:04:54;4.32;;;3.30;;
12880;SDS011;6508;53.786;9.996;2022-09-13T13:07:25;4.65;;;3.20;;
12880;SDS011;6508;53.786;9.996;2022-09-13T13:09:54;3.70;;;3.40;;
12880;SDS011;6508;53.786;9.996;2022-09-13T13:12:27;4.20;;;3.30;;
12880;SDS011;6508;53.786;9.996;2022-09-13T13:14:57;6.18;;;3.05;;
12880;SDS011;6508;53.786;9.996;2022-09-13T13:17:40;4.57;;;3.33;;
12880;SDS011;6508;53.786;9.996;2022-09-13T13:23:18;5.55;;;3.28;;
12880;SDS011;6508;53.786;9.996;2022-09-13T13:25:59;3.28;;;3.08;;
12880;SDS011;6508;53.786;9.996;2022-09-13T13:28:50;3.72;;;2.63;;
12880;SDS011;6508;53.786;9.996;2022-09-13T13:31:45;2.70;;;2.53;;
12880;SDS011;6508;53.786;9.996;2022-09-13T13:34:38;3.47;;;2.75;;
12880;SDS011;6508;53.786;9.996;2022-09-13T13:37:28;6.13;;;2.90;;
12880;SDS011;6508;53.786;9.996;2022-09-13T13:43:15;3.15;;;2.92;;
12880;SDS011;6508;53.786;9.996;2022-09-13T13:45:56;3.05;;;2.80;;
12880;SDS011;6508;53.786;9.996;2022-09-13T13:48:43;3.55;;;2.83;;
12880;SDS011;6508;53.786;9.996;2022-09-13T13:51:11;5.40;;;3.92;;
12880;SDS011;6508;53.786;9.996;2022-09-13T13:53:45;37.50;;;33.55;;
12880;SDS011;6508;53.786;9.996;2022-09-13T13:56:20;4.15;;;3.20;;
12880;SDS011;6508;53.786;9.996;2022-09-13T13:58:53;4.75;;;2.92;;
12880;SDS011;6508;53.786;9.996;2022-09-13T14:01:24;8.07;;;3.70;;
12880;SDS011;6508;53.786;9.996;2022-09-13T14:04:15;5.00;;;3.70;;
12880;SDS011;6508;53.786;9.996;2022-09-13T14:10:11;3.85;;;2.83;;
12880;SDS011;6508;53.786;9.996;2022-09-13T14:12:47;4.28;;;2.55;;
12880;SDS011;6508;53.786;9.996;2022-09-13T14:15:26;5.05;;;3.58;;
12880;SDS011;6508;53.786;9.996;2022-09-13T14:21:17;4.05;;;3.78;;
12880;SDS011;6508;53.786;9.996;2022-09-13T14:23:46;4.35;;;3.95;;
12880;SDS011;6508;53.786;9.996;2022-09-13T14:26:14;23.77;;;20.63;;
12880;SDS011;6508;53.786;9.996;2022-09-13T14:28:43;17.15;;;15.38;;
12880;SDS011;6508;53.786;9.996;2022-09-13T14:31:15;3.92;;;3.60;;
12880;SDS011;6508;53.786;9.996;2022-09-13T14:33:46;4.20;;;3.90;;
12880;SDS011;6508;53.786;9.996;2022-09-13T14:36:15;4.45;;;3.95;;
12880;SDS011;6508;53.786;9.996;2022-09-13T14:38:46;4.00;;;3.70;;
12880;SDS011;6508;53.786;9.996;2022-09-13T14:41:21;3.83;;;3.53;;
12880;SDS011;6508;53.786;9.996;2022-09-13T14:44:12;4.50;;;4.15;;
12880;SDS011;6508;53.786;9.996;2022-09-13T14:46:50;4.43;;;3.90;;
12880;SDS011;6508;53.786;9.996;2022-09-13T14:49:20;3.97;;;3.58;;
12880;SDS011;6508;53.786;9.996;2022-09-13T14:51:52;4.35;;;3.63;;
12880;SDS011;6508;53.786;9.996;2022-09-13T14:54:24;5.85;;;4.22;;
12880;SDS011;6508;53.786;9.996;2022-09-13T14:56:56;5.15;;;3.80;;
12880;SDS011;6508;53.786;9.996;2022-09-13T14:59:27;4.47;;;4.07;;
12880;SDS011;6508;53.786;9.996;2022-09-13T15:01:57;4.45;;;3.88;;
12880;SDS011;6508;53.786;9.996;2022-09-13T15:04:28;4.30;;;3.80;;
12880;SDS011;6508;53.786;9.996;2022-09-13T15:07:06;7.45;;;3.85;;
12880;SDS011;6508;53.786;9.996;2022-09-13T15:09:35;5.85;;;3.75;;
12880;SDS011;6508;53.786;9.996;2022-09-13T15:12:04;4.38;;;3.95;;
12880;SDS011;6508;53.786;9.996;2022-09-13T15:14:49;3.80;;;3.55;;
12880;SDS011;6508;53.786;9.996;2022-09-13T15:17:50;5.53;;;3.72;;
12880;SDS011;6508;53.786;9.996;2022-09-13T15:20:19;3.65;;;3.38;;
12880;SDS011;6508;53.786;9.996;2022-09-13T15:22:48;5.40;;;2.92;;
12880;SDS011;6508;53.786;9.996;2022-09-13T15:25:19;6.13;;;3.28;;
12880;SDS011;6508;53.786;9.996;2022-09-13T15:27:49;3.90;;;2.65;;
12880;SDS011;6508;53.786;9.996;2022-09-13T15:30:26;4.68;;;2.70;;
12880;SDS011;6508;53.786;9.996;2022-09-13T15:33:05;5.47;;;2.92;;
12880;SDS011;6508;53.786;9.996;2022-09-13T15:35:41;4.60;;;2.88;;
12880;SDS011;6508;53.786;9.996;2022-09-13T15:38:14;4.72;;;3.33;;
12880;SDS011;6508;53.786;9.996;2022-09-13T15:40:45;4.47;;;2.70;;
12880;SDS011;6508;53.786;9.996;2022-09-13T15:43:13;5.15;;;3.53;;
12880;SDS011;6508;53.786;9.996;2022-09-13T15:45:43;2.90;;;2.60;;
12880;SDS011;6508;53.786;9.996;2022-09-13T15:48:15;3.10;;;2.72;;
12880;SDS011;6508;53.786;9.996;2022-09-13T15:50:51;3.10;;;2.60;;
12880;SDS011;6508;53.786;9.996;2022-09-13T15:53:31;2.65;;;2.40;;
12880;SDS011;6508;53.786;9.996;2022-09-13T15:55:59;2.22;;;2.03;;
12880;SDS011;6508;53.786;9.996;2022-09-13T15:58:27;5.90;;;2.15;;